Station APMA2 - Anchorage Port, AK Image indicating link to RSS feed of recent meteorological observations for station APMA2


Conditions at APMA2 as of
(9:44 am AKDT)
1744 GMT on 05/22/2024:
     

Click on the graph icon in the table below to see a time series plot of the last five days of that observation.

5-day plot - Wind Speed Wind Speed (WSPD): 6 kts
5-day plot - Wind Gust Wind Gust (GST): 9 kts
5-day plot - Air Temperature Air Temperature (ATMP): 45.7 °F
5-day plot - Dew Point Dew Point (DEWP): 40.1 °F
5-day plot - Wind Chill Wind Chill (CHILL): 42.1 °F
5-day plot - Wind Speed at 10 Meters Wind Speed at 10 meters (WSPD10M): 6 kts
5-day plot - Wind Speed at 20 Meters Wind Speed at 20 meters (WSPD20M): 6 kts
5-day plot -  Wind Speed, Wind Gust and Atmospheric Pressure Combined plot of Wind Speed, Gust, and Air Pressure
Previous observations
TIME
(AKDT)
5-day plot - Wind Direction
WDIR
 
5-day plot - Wind Speed
WSPD
kts
5-day plot - Wind Gust
GST
kts
5-day plot - Wave Height
WVHT
ft
5-day plot - Dominant Wave Period
DPD
sec
5-day plot - Average Wave Period
APD
sec
5-day plot - Mean Wave Direction
MWD
 
5-day plot - Atmospheric Pressure
PRES
in
5-day plot - Pressure Tendency
PTDY
in
5-day plot - Air Temperature
ATMP
°F
5-day plot - Water Temperature
WTMP
°F
5-day plot - Dew Point
DEWP
°F
5-day plot - Salinity
SAL
psu
5-day plot - Visibility
VIS
nmi
5-day plot - Tide (above MLLW)
TIDE
ft
2024-05-22 09:34 am- 4 8------ 45.5- 39.9---
2024-05-22 09:24 am- 1 4------ 45.0- 40.3---
2024-05-22 09:14 am- 4 7------ 44.4- 39.9---
2024-05-22 09:04 am- 5 7------ 44.4- 39.7---
2024-05-22 08:55 am- 6 9------ 44.4- 39.6---
2024-05-22 08:45 am- 6 9------ 44.6- 39.7---
2024-05-22 08:34 am- 5 8------ 44.8- 39.7---
2024-05-22 08:24 am- 4 5------ 45.1- 39.7---
2024-05-22 08:14 am- 4 5------ 45.5- 39.6---
2024-05-22 08:04 am- 3 6------ 45.1- 39.4---
2024-05-22 07:54 am- 2 6------ 45.0- 39.6---
2024-05-22 07:34 am- 5 6------ 44.4- 39.4---
2024-05-22 07:24 am- 6 9------ 44.6- 39.4---
2024-05-22 07:14 am- 6 9------ 44.6- 39.6---
2024-05-22 07:04 am- 5 8------ 45.3- 39.7---
2024-05-22 06:54 am- 6 8------ 45.5- 39.7---
2024-05-22 06:44 am- 5 8------ 45.3- 39.9---
2024-05-22 06:34 am- 3 7------ 45.3- 40.1---
2024-05-22 06:24 am- 4 7------ 45.5- 40.1---
2024-05-22 06:14 am- 1 3------ 45.9- 41.0---
2024-05-22 06:04 am- 4 6------ 45.7- 40.5---
2024-05-22 05:55 am- 3 7------ 45.5- 40.3---
2024-05-22 05:44 am- 3 6------ 45.9- 40.5---
2024-05-22 05:34 am- 3 7------ 45.7- 40.5---
2024-05-22 05:24 am- 5 8------ 45.5- 40.3---
2024-05-22 05:14 am- 6 9------ 45.7- 40.3---
2024-05-22 05:04 am- 7 10------ 45.7- 40.3---
2024-05-22 04:54 am- 4 8------ 45.7- 40.3---
2024-05-22 04:44 am- 4 7------ 45.5- 40.1---
2024-05-22 04:34 am- 4 8------ 45.1- 40.1---
2024-05-22 04:24 am- 3 6------ 44.8- 40.3---
2024-05-22 04:14 am- 4 9------ 44.6- 40.1---
2024-05-22 04:04 am- 9 14------ 44.6- 40.3---
2024-05-22 03:54 am- 9 16------ 44.4- 40.3---
2024-05-22 03:44 am- 13 17------ 44.1- 39.7---
2024-05-22 03:34 am- 11 16------ 44.4- 39.9---
2024-05-22 03:24 am- 9 13------ 45.1- 39.7---
2024-05-22 03:14 am- 6 10------ 46.6- 39.6---
2024-05-22 03:04 am- 5 10------ 46.4- 39.7---
2024-05-22 02:54 am- 6 10------ 46.8- 39.4---
2024-05-22 02:44 am- 8 12------ 46.4- 38.8---
2024-05-22 02:34 am- 5 8------ 46.4- 39.2---
2024-05-22 02:24 am- 2 5------ 46.4- 39.9---
2024-05-22 02:14 am- 3 6------ 46.4- 39.7---
2024-05-22 02:04 am- 5 9------ 46.6- 39.4---
2024-05-22 01:54 am- 5 9------ 46.4- 40.1---
2024-05-22 01:44 am- 4 7------ 47.3- 40.1---
2024-05-22 01:34 am- 3 7------ 47.7- 39.6---
2024-05-22 01:24 am- 2 5------ 48.2- 39.4---
2024-05-22 01:14 am- 3 6------ 48.2- 39.6---
2024-05-22 01:04 am- 4 6------ 48.4- 39.7---
2024-05-22 12:54 am- 4 5------ 48.2- 40.3---
2024-05-22 12:44 am- 4 6------ 47.8- 40.6---
2024-05-22 12:24 am- 2 5------ 47.8- 40.6---
2024-05-22 12:15 am- 2 5------ 48.0- 40.5---
2024-05-22 12:05 am- 3 7------ 48.2- 40.3---
2024-05-21 11:54 pm- 4 8------ 48.4- 40.1---
2024-05-21 11:45 pm- 2 5------ 48.0- 41.0---
2024-05-21 11:34 pm- 5 10------ 48.0- 41.4---
2024-05-21 11:24 pm- 3 5------ 48.0- 41.7---
2024-05-21 11:14 pm- 5 8------ 47.8- 42.4---
2024-05-21 11:04 pm- 6 9------ 47.8- 42.3---
2024-05-21 10:54 pm- 3 6------ 48.0- 42.4---
2024-05-21 10:44 pm- 4 7------ 48.0- 42.8---
2024-05-21 10:34 pm- 3 6------ 48.2- 43.0---
2024-05-21 10:24 pm- 2 4------ 48.0- 43.2---
2024-05-21 10:14 pm- 4 7------ 48.0- 43.2---
2024-05-21 10:04 pm- 3 6------ 48.2- 43.3---
2024-05-21 09:54 pm- 4 6------ 48.2- 43.3---
2024-05-21 09:44 pm- 6 8------ 48.2- 43.3---
2024-05-21 09:34 pm- 5 7------ 48.2- 43.5---
2024-05-21 09:24 pm- 5 7------ 48.2- 43.5---
2024-05-21 09:14 pm- 4 6------ 48.0- 43.5---
2024-05-21 09:04 pm- 5 7------ 48.0- 43.3---
2024-05-21 08:54 pm- 4 6------ 47.8- 43.5---
2024-05-21 08:44 pm- 4 6------ 48.2- 43.7---
2024-05-21 08:34 pm- 3 6------ 48.2- 43.5---
2024-05-21 08:24 pm- 3 5------ 47.8- 43.3---
2024-05-21 08:14 pm- 4 5------ 47.8- 43.5---
2024-05-21 08:04 pm- 2 5------ 47.7- 43.3---
2024-05-21 07:54 pm- 2 4------ 47.7- 43.2---
2024-05-21 07:44 pm- 5 6------ 47.7- 43.0---
2024-05-21 07:34 pm- 5 8------ 48.0- 43.3---
2024-05-21 07:24 pm- 5 8------ 47.8- 43.2---
2024-05-21 07:15 pm- 3 6------ 48.0- 43.3---
2024-05-21 07:04 pm- 5 8------ 48.0- 43.3---
2024-05-21 06:54 pm- 5 7------ 48.4- 43.5---
2024-05-21 06:44 pm- 5 7------ 48.2- 43.3---
2024-05-21 06:34 pm- 4 7------ 48.6- 43.3---
2024-05-21 06:24 pm- 3 6------ 48.6- 43.3---
2024-05-21 06:14 pm- 4 8------ 48.4- 43.2---
2024-05-21 06:04 pm- 4 8------ 48.4- 43.3---
2024-05-21 05:54 pm- 6 9------ 48.2- 43.2---
2024-05-21 05:45 pm- 5 8------ 48.4- 43.2---
2024-05-21 05:34 pm- 4 7------ 48.4- 43.3---
2024-05-21 05:24 pm- 6 11------ 48.4- 43.2---
2024-05-21 05:14 pm- 5 8------ 48.4- 43.2---
2024-05-21 05:04 pm- 3 6------ 48.6- 43.2---
2024-05-21 04:54 pm- 5 8------ 48.0- 42.8---
2024-05-21 04:44 pm- 4 7------ 47.8- 42.8---
2024-05-21 04:34 pm- 5 7------ 47.8- 43.0---
2024-05-21 04:24 pm- 6 8------ 47.7- 42.6---
2024-05-21 04:14 pm- 6 8------ 47.5- 42.6---
2024-05-21 03:54 pm- 7 10------ 47.7- 43.0---
2024-05-21 03:44 pm- 7 9------ 47.5- 42.8---
2024-05-21 03:34 pm- 6 8------ 47.5- 42.6---
2024-05-21 03:24 pm- 7 9------ 47.3- 42.6---
2024-05-21 03:14 pm- 7 10------ 47.3- 42.6---
2024-05-21 03:04 pm- 7 10------ 46.9- 42.4---
2024-05-21 02:54 pm- 8 11------ 46.6- 42.3---
2024-05-21 02:44 pm- 7 10------ 46.6- 42.3---
2024-05-21 02:34 pm- 6 11------ 46.8- 42.4---
2024-05-21 02:24 pm- 5 9------ 46.9- 42.4---
2024-05-21 02:14 pm- 5 10------ 46.9- 42.3---
2024-05-21 02:04 pm- 4 8------ 46.9- 42.3---
2024-05-21 01:54 pm- 4 8------ 47.1- 42.4---
2024-05-21 01:44 pm- 4 9------ 46.9- 42.1---
2024-05-21 01:34 pm- 4 9------ 47.1- 42.3---
2024-05-21 01:24 pm- 6 10------ 46.9- 41.9---
2024-05-21 01:14 pm- 8 10------ 46.9- 41.7---
2024-05-21 01:04 pm- 8 11------ 47.1- 41.5---
2024-05-21 12:54 pm- 8 13------ 47.7- 41.7---
2024-05-21 12:44 pm- 8 12------ 47.8- 41.7---
2024-05-21 12:34 pm- 7 10------ 48.0- 41.7---
2024-05-21 12:24 pm- 5 9------ 48.2- 41.9---
2024-05-21 12:14 pm- 4 8------ 48.6- 41.9---
2024-05-21 12:04 pm- 5 9------ 48.6- 41.4---
2024-05-21 11:54 am- 5 9------ 48.4- 41.4---
2024-05-21 11:44 am- 5 11------ 48.6- 40.8---
2024-05-21 11:34 am- 4 8------ 48.2- 41.5---
2024-05-21 11:24 am- 4 9------ 48.0- 41.4---
2024-05-21 11:14 am- 3 9------ 48.2- 41.5---
2024-05-21 11:04 am- 5 9------ 48.0- 41.2---
2024-05-21 10:54 am- 5 9------ 47.8- 40.8---
2024-05-21 10:44 am- 5 9------ 47.7- 40.5---
2024-05-21 10:34 am- 5 9------ 47.5- 40.6---
2024-05-21 10:24 am- 6 12------ 47.5- 40.6---
2024-05-21 10:14 am- 5 10------ 47.5- 41.0---
2024-05-21 10:04 am- 4 8------ 47.1- 41.2---
2024-05-21 09:54 am- 5 10------ 47.1- 41.2---